Time;durP1;ratioP1;P1;durP2;ratioP2;P2;SDS_P1;SDS_P2;PMS_P1;PMS_P2;Temp;Humidity;BMP_temperature;BMP_pressure;BME280_temperature;BME280_humidity;BME280_pressure;Samples;Min_cycle;Max_cycle;Signal;HPM_P1;HPM_P2
2022/09/16 00:00:49;;;;;;;0.10;0.10;;;;;;;26.50;35.10;94570.44;5038980;28;20192;-68
2022/09/16 00:03:17;;;;;;;0.83;0.83;;;;;;;27.23;33.88;94564.44;5052833;28;20208;-68
2022/09/16 00:05:46;;;;;;;0.80;0.80;;;;;;;27.13;34.31;94548.19;5038835;28;20288;-65
2022/09/16 00:08:13;;;;;;;4.40;2.10;;;;;;;27.40;34.05;94557.75;5043777;28;20725;-70
2022/09/16 00:10:42;;;;;;;0.20;0.20;;;;;;;27.26;33.67;94552.19;5047455;28;20232;-67
2022/09/16 00:13:10;;;;;;;0.80;0.80;;;;;;;27.39;34.12;94548.13;5040714;28;20667;-69
2022/09/16 00:15:44;;;;;;;0.40;0.40;;;;;;;27.20;34.50;94537.50;5053231;28;20229;-66
2022/09/16 00:18:11;;;;;;;0.50;0.50;;;;;;;27.35;33.88;94555.38;5039304;28;20196;-66
2022/09/16 00:20:50;;;;;;;0.40;0.40;;;;;;;27.34;34.15;94561.91;5052764;28;20287;-69
2022/09/16 00:23:18;;;;;;;2.97;0.87;;;;;;;27.31;34.11;94559.97;5032624;28;20722;-70
2022/09/16 00:25:54;;;;;;;0.40;0.40;;;;;;;27.32;34.06;94556.88;5046003;28;20296;-67
2022/09/16 00:28:22;;;;;;;0.30;0.30;;;;;;;27.33;33.83;94555.75;5052494;28;20315;-70
2022/09/16 00:30:49;;;;;;;0.30;0.30;;;;;;;27.25;34.38;94547.94;5039551;28;20302;-67
2022/09/16 00:33:17;;;;;;;2.13;0.83;;;;;;;27.35;34.15;94550.00;5051770;28;20691;-70
2022/09/16 00:35:44;;;;;;;0.63;0.53;;;;;;;27.32;34.15;94523.81;5041329;28;20193;-69
2022/09/16 00:38:12;;;;;;;0.10;0.10;;;;;;;26.10;36.29;94551.44;5030664;28;20535;-65
2022/09/16 00:40:47;;;;;;;0.30;0.30;;;;;;;25.94;36.40;94558.84;5042814;28;20204;-67
2022/09/16 00:43:17;;;;;;;0.20;0.20;;;;;;;26.70;34.85;94549.59;5048902;28;20256;-70
2022/09/16 00:45:49;;;;;;;0.50;0.50;;;;;;;26.90;35.31;94562.53;5042354;28;20242;-66
2022/09/16 00:48:23;;;;;;;3.10;1.03;;;;;;;26.07;36.48;94556.75;5051607;28;20211;-68
2022/09/16 00:50:56;;;;;;;0.37;0.37;;;;;;;26.21;36.01;94549.69;5042644;28;20793;-68
2022/09/16 00:53:50;;;;;;;0.63;0.63;;;;;;;26.78;34.76;94559.31;5048457;28;20211;-67
2022/09/16 00:56:22;;;;;;;0.10;0.10;;;;;;;26.93;34.89;94553.72;5043176;28;20201;-69
2022/09/16 00:59:04;;;;;;;1.93;1.60;;;;;;;26.67;35.96;94564.53;5045649;28;20689;-67
2022/09/16 01:01:31;;;;;;;0.70;0.70;;;;;;;26.61;35.56;94565.97;5042053;28;20188;-67
2022/09/16 01:04:07;;;;;;;0.60;0.60;;;;;;;26.99;34.72;94563.03;5037875;28;20226;-70
2022/09/16 01:06:38;;;;;;;0.50;0.50;;;;;;;26.29;35.87;94561.31;5042596;28;20201;-66
2022/09/16 01:09:05;;;;;;;0.43;0.43;;;;;;;26.74;34.76;94558.50;5031951;28;20196;-68
2022/09/16 01:11:32;;;;;;;0.10;0.10;;;;;;;26.75;34.89;94562.75;5040263;28;20226;-69
2022/09/16 01:17:02;;;;;;;0.80;0.80;;;;;;;26.99;35.26;94568.41;5051585;28;20651;-68
2022/09/16 01:19:32;;;;;;;0.63;0.50;;;;;;;27.01;35.94;94574.19;5051685;28;20228;-67
2022/09/16 01:22:26;;;;;;;0.30;0.30;;;;;;;26.74;36.06;94580.78;5051915;28;20258;-69
2022/09/16 01:25:16;;;;;;;0.20;0.20;;;;;;;27.01;35.64;94574.19;5031768;28;20205;-69
2022/09/16 01:28:02;;;;;;;0.20;0.20;;;;;;;26.94;35.50;94574.13;5032217;28;20213;-68
2022/09/16 01:30:41;;;;;;;0.43;0.43;;;;;;;26.78;35.07;94576.22;5041815;28;20828;-69
2022/09/16 01:33:26;;;;;;;0.17;0.17;;;;;;;26.59;35.30;94573.63;5058471;28;20199;-66
2022/09/16 01:36:08;;;;;;;0.27;0.27;;;;;;;24.90;38.27;94576.09;5047065;28;20543;-70
2022/09/16 01:38:59;;;;;;;1.17;0.67;;;;;;;25.60;37.33;94570.53;5050716;28;20200;-66
2022/09/16 01:41:45;;;;;;;0.67;0.67;;;;;;;26.27;36.07;94555.53;5033761;28;20729;-69
2022/09/16 01:44:52;;;;;;;0.57;0.57;;;;;;;26.41;36.69;94551.13;5049648;28;20324;-68
2022/09/16 01:47:35;;;;;;;9.17;1.60;;;;;;;26.43;36.07;94564.97;5029706;28;20205;-68
2022/09/16 01:50:05;;;;;;;0.57;0.40;;;;;;;26.50;36.16;94558.91;5045257;28;20280;-65
2022/09/16 01:52:59;;;;;;;0.50;0.50;;;;;;;26.47;36.68;94560.44;5030932;28;21228;-68
2022/09/16 01:55:43;;;;;;;0.20;0.20;;;;;;;26.37;36.63;94568.34;5031149;28;20247;-69
2022/09/16 01:58:16;;;;;;;1.80;0.67;;;;;;;26.04;37.20;94572.44;5041663;28;20310;-68
2022/09/16 02:00:44;;;;;;;0.40;0.40;;;;;;;26.36;36.60;94574.84;5033831;28;20198;-69
2022/09/16 02:03:18;;;;;;;0.50;0.40;;;;;;;26.07;36.97;94557.53;5031223;28;20631;-70
2022/09/16 02:05:50;;;;;;;1.73;0.60;;;;;;;26.33;36.39;94560.22;5047507;28;20622;-69
2022/09/16 02:08:25;;;;;;;0.73;0.73;;;;;;;26.14;36.74;94552.28;5053799;28;20193;-64
2022/09/16 02:10:59;;;;;;;0.70;0.70;;;;;;;26.29;36.51;94532.53;5039951;28;22305;-66
2022/09/16 02:13:34;;;;;;;0.33;0.33;;;;;;;26.49;36.25;94547.41;5051095;28;20205;-68
2022/09/16 02:16:07;;;;;;;1.70;1.00;;;;;;;26.01;36.91;94515.97;5050642;28;20207;-67
2022/09/16 02:18:39;;;;;;;0.40;0.40;;;;;;;26.21;36.45;94552.38;5040387;28;20189;-68
2022/09/16 02:21:13;;;;;;;0.83;0.83;;;;;;;26.02;36.59;94560.50;5047377;28;20291;-68
2022/09/16 02:23:45;;;;;;;0.40;0.37;;;;;;;25.98;36.94;94535.50;5050646;28;20208;-68
2022/09/16 02:26:17;;;;;;;0.40;0.40;;;;;;;26.35;36.84;94539.13;5033359;28;20204;-66
2022/09/16 02:28:48;;;;;;;0.20;0.20;;;;;;;26.42;36.52;94536.53;5040594;28;20762;-68
2022/09/16 02:31:18;;;;;;;0.50;0.50;;;;;;;26.35;36.74;94536.44;5047770;28;20593;-69
2022/09/16 02:33:59;;;;;;;2.57;1.07;;;;;;;26.09;37.59;94549.91;5040119;28;20212;-67
2022/09/16 02:36:26;;;;;;;0.60;0.60;;;;;;;26.18;37.35;94558.47;5036105;28;20644;-69
2022/09/16 02:39:01;;;;;;;0.30;0.30;;;;;;;25.23;38.56;94567.56;5040943;28;20207;-67
2022/09/16 02:41:29;;;;;;;1.43;0.70;;;;;;;26.15;36.82;94553.81;5030229;28;20216;-66
2022/09/16 02:43:56;;;;;;;0.93;0.83;;;;;;;25.53;37.61;94570.44;5038636;28;20321;-68
2022/09/16 02:47:01;;;;;;;0.47;0.47;;;;;;;26.05;37.19;94565.16;5034723;28;20208;-66
2022/09/16 02:49:41;;;;;;;0.43;0.43;;;;;;;25.65;37.58;94562.19;5018274;28;20197;-66
2022/09/16 02:52:14;;;;;;;0.60;0.60;;;;;;;25.73;37.78;94564.63;5035986;28;20690;-69
2022/09/16 02:54:59;;;;;;;0.93;0.93;;;;;;;25.71;37.64;94560.75;5050486;28;21029;-68
2022/09/16 02:57:27;;;;;;;0.40;0.40;;;;;;;25.87;37.58;94564.09;5035862;28;20375;-66
2022/09/16 02:59:54;;;;;;;0.37;0.37;;;;;;;25.99;36.67;94562.00;5050167;28;20239;-68
2022/09/16 03:02:21;;;;;;;0.33;0.33;;;;;;;26.15;36.18;94567.22;5035910;28;20237;-68
2022/09/16 03:04:49;;;;;;;0.20;0.20;;;;;;;26.19;36.43;94578.81;5041207;28;20645;-68
2022/09/16 03:07:16;;;;;;;0.10;0.10;;;;;;;26.29;36.35;94591.63;5043904;28;20260;-66
2022/09/16 03:09:46;;;;;;;0.10;0.10;;;;;;;26.52;36.05;94570.84;5037662;28;20208;-66
2022/09/16 03:12:19;;;;;;;2.87;1.17;;;;;;;26.48;36.15;94575.41;5034084;28;20315;-69
2022/09/16 03:15:24;;;;;;;0.60;0.60;;;;;;;26.47;36.01;94581.91;5036735;28;20648;-67
2022/09/16 03:18:02;;;;;;;0.97;0.97;;;;;;;26.30;36.33;94587.03;5048944;28;20204;-68
2022/09/16 03:20:50;;;;;;;0.20;0.20;;;;;;;25.88;36.96;94593.25;5037510;28;20192;-69
2022/09/16 03:23:23;;;;;;;0.80;0.77;;;;;;;26.20;36.20;94596.50;5029800;28;20546;-66
2022/09/16 03:25:58;;;;;;;2.27;0.83;;;;;;;26.35;35.97;94600.91;5043727;28;20291;-69
2022/09/16 03:28:53;;;;;;;0.40;0.40;;;;;;;26.51;35.71;94603.47;5029371;28;20627;-66
2022/09/16 03:31:31;;;;;;;0.33;0.33;;;;;;;26.53;35.91;94593.88;5029574;28;20316;-69
2022/09/16 03:34:12;;;;;;;2.53;1.03;;;;;;;26.55;36.45;94580.88;5039381;28;20338;-68
2022/09/16 03:36:53;;;;;;;1.20;0.73;;;;;;;26.18;36.62;94585.34;5035102;28;20287;-66
2022/09/16 03:39:21;;;;;;;0.40;0.40;;;;;;;26.24;36.82;94583.88;5036184;28;20747;-68
2022/09/16 03:41:48;;;;;;;1.30;0.73;;;;;;;26.46;36.51;94580.34;5028167;28;20712;-69
2022/09/16 03:44:15;;;;;;;0.47;0.47;;;;;;;26.62;36.83;94575.56;5029100;28;20225;-68
2022/09/16 03:46:42;;;;;;;1.30;1.03;;;;;;;26.56;37.15;94578.97;5047251;28;20188;-68
2022/09/16 03:49:10;;;;;;;0.63;0.63;;;;;;;26.38;37.58;94581.41;5049670;28;20200;-65
2022/09/16 03:51:37;;;;;;;0.20;0.20;;;;;;;26.42;37.87;94566.09;5033202;28;20811;-68
2022/09/16 03:54:04;;;;;;;0.20;0.20;;;;;;;26.43;37.68;94559.59;5029658;28;20204;-68
2022/09/16 03:56:31;;;;;;;0.73;0.73;;;;;;;26.53;37.48;94563.56;5032719;28;20197;-68
2022/09/16 03:58:57;;;;;;;0.30;0.30;;;;;;;25.29;38.91;94576.09;5043013;28;20789;-66
2022/09/16 04:01:24;;;;;;;0.30;0.30;;;;;;;25.76;38.53;94579.25;5038419;28;20711;-67
2022/09/16 04:03:51;;;;;;;0.43;0.43;;;;;;;25.97;38.67;94579.59;5049504;28;20873;-70
2022/09/16 04:06:18;;;;;;;0.80;0.80;;;;;;;25.94;38.50;94574.94;5049550;28;20628;-69
2022/09/16 04:08:46;;;;;;;2.67;0.70;;;;;;;25.95;38.22;94587.22;5048911;28;20636;-65
2022/09/16 04:11:13;;;;;;;0.93;0.57;;;;;;;26.22;37.74;94594.22;5034826;28;20212;-66
2022/09/16 04:13:39;;;;;;;0.70;0.70;;;;;;;26.18;37.64;94596.06;5037419;28;20205;-69
2022/09/16 04:16:06;;;;;;;1.30;1.13;;;;;;;26.30;37.93;94603.91;5047346;28;20196;-69
2022/09/16 04:18:33;;;;;;;0.33;0.33;;;;;;;26.05;38.45;94613.50;5038999;28;20579;-67
2022/09/16 04:21:02;;;;;;;0.20;0.20;;;;;;;26.42;37.60;94617.13;5045655;28;20231;-67
2022/09/16 04:23:32;;;;;;;8.60;1.53;;;;;;;26.33;36.95;94603.19;5049060;28;20656;-67
2022/09/16 04:26:01;;;;;;;0.40;0.40;;;;;;;26.14;37.04;94627.47;5048099;28;20607;-68
2022/09/16 04:28:30;;;;;;;5.00;2.00;;;;;;;26.19;36.85;94632.53;5037515;28;20200;-70
2022/09/16 04:31:01;;;;;;;0.93;0.80;;;;;;;25.92;37.78;94626.31;5038671;28;20217;-69
2022/09/16 04:33:30;;;;;;;2.07;0.67;;;;;;;25.96;37.23;94615.63;5052837;28;20258;-67
2022/09/16 04:36:13;;;;;;;0.73;0.60;;;;;;;26.00;37.08;94611.09;5053139;28;20288;-67
2022/09/16 04:38:42;;;;;;;0.37;0.37;;;;;;;26.11;37.36;94617.44;5042907;28;20193;-64
2022/09/16 04:41:27;;;;;;;0.20;0.20;;;;;;;26.01;36.54;94613.44;5056207;28;20698;-69
2022/09/16 04:43:56;;;;;;;0.47;0.47;;;;;;;25.46;37.86;94610.50;5041065;28;20228;-66
2022/09/16 04:46:25;;;;;;;0.37;0.37;;;;;;;25.54;37.91;94614.88;5037011;28;20201;-66
2022/09/16 04:48:53;;;;;;;0.97;0.83;;;;;;;26.14;36.79;94616.72;5032275;28;20209;-68
2022/09/16 04:51:21;;;;;;;0.87;0.77;;;;;;;26.33;36.27;94622.00;5032598;28;20319;-66
2022/09/16 04:53:48;;;;;;;5.13;1.30;;;;;;;26.15;36.42;94623.63;5038346;28;20224;-66
2022/09/16 04:56:21;;;;;;;0.50;0.50;;;;;;;26.27;36.21;94626.16;5042781;28;20197;-67
2022/09/16 04:58:51;;;;;;;0.50;0.50;;;;;;;26.23;36.29;94621.84;5047382;28;20197;-70
2022/09/16 05:01:24;;;;;;;2.03;1.43;;;;;;;26.46;36.10;94617.97;5044079;28;20225;-67
2022/09/16 05:03:53;;;;;;;0.20;0.20;;;;;;;26.58;35.72;94608.94;5047195;28;20204;-71
2022/09/16 05:06:26;;;;;;;0.30;0.30;;;;;;;26.60;35.75;94612.81;5044959;28;20192;-67
2022/09/16 05:08:55;;;;;;;0.97;0.87;;;;;;;26.64;35.67;94600.19;5046397;28;20196;-69
2022/09/16 05:11:24;;;;;;;0.40;0.40;;;;;;;26.91;35.35;94607.13;5046224;28;20291;-68
2022/09/16 05:13:51;;;;;;;1.33;1.07;;;;;;;26.38;36.41;94610.97;5045888;28;20196;-67
2022/09/16 05:16:21;;;;;;;1.10;1.10;;;;;;;26.26;36.34;94611.16;5052463;28;20283;-68
2022/09/16 05:18:50;;;;;;;0.87;0.87;;;;;;;26.03;37.64;94610.38;5040294;28;20197;-68
2022/09/16 05:21:19;;;;;;;0.77;0.77;;;;;;;25.83;38.16;94611.56;5050071;28;20288;-68
2022/09/16 05:23:47;;;;;;;0.30;0.30;;;;;;;26.22;38.04;94598.81;5041085;28;20205;-67
2022/09/16 05:26:20;;;;;;;2.10;1.80;;;;;;;26.13;37.50;94592.91;5030262;28;20628;-68
2022/09/16 05:28:49;;;;;;;0.43;0.43;;;;;;;26.41;37.17;94583.34;5042290;28;20201;-70
2022/09/16 05:31:19;;;;;;;1.27;0.73;;;;;;;26.23;37.18;94593.06;5033526;28;20218;-68
2022/09/16 05:33:59;;;;;;;0.73;0.70;;;;;;;26.55;36.66;94593.53;5030251;28;20656;-71
2022/09/16 05:36:28;;;;;;;0.40;0.40;;;;;;;26.26;36.77;94596.97;5034436;28;20671;-69
2022/09/16 05:38:55;;;;;;;0.37;0.37;;;;;;;26.69;35.83;94589.16;5050975;28;20612;-66
2022/09/16 05:41:43;;;;;;;0.30;0.30;;;;;;;26.57;36.24;94589.34;5036503;28;20200;-66
2022/09/16 05:44:09;;;;;;;7.40;1.70;;;;;;;26.70;36.07;94579.94;5050980;28;20778;-66
2022/09/16 05:46:39;;;;;;;0.20;0.20;;;;;;;26.96;36.24;94587.97;5037114;28;20204;-67
2022/09/16 05:49:07;;;;;;;0.30;0.30;;;;;;;27.23;35.69;94580.59;5051214;28;20203;-66
2022/09/16 05:51:36;;;;;;;3.70;0.67;;;;;;;27.05;35.40;94579.63;5035114;28;20574;-67
2022/09/16 05:54:03;;;;;;;0.33;0.33;;;;;;;26.98;35.49;94582.22;5031254;28;20223;-69
2022/09/16 05:56:30;;;;;;;0.30;0.30;;;;;;;27.04;35.19;94589.59;5034774;28;20652;-67
2022/09/16 05:58:59;;;;;;;0.40;0.40;;;;;;;27.00;35.00;94594.19;5043617;28;20574;-66
2022/09/16 06:01:28;;;;;;;1.80;1.17;;;;;;;27.11;34.83;94588.13;5030803;28;20676;-70
2022/09/16 06:03:55;;;;;;;0.50;0.40;;;;;;;27.22;34.52;94575.59;5046169;28;20209;-68
2022/09/16 06:06:25;;;;;;;0.40;0.40;;;;;;;27.39;34.20;94578.47;5042935;28;20188;-69
2022/09/16 06:08:57;;;;;;;1.23;0.93;;;;;;;27.35;34.16;94575.00;5044598;28;20277;-68
2022/09/16 06:11:25;;;;;;;2.13;0.90;;;;;;;27.56;33.52;94579.81;5050578;28;20311;-67
2022/09/16 06:14:01;;;;;;;0.30;0.30;;;;;;;27.59;33.76;94584.47;5050974;28;20706;-67
2022/09/16 06:16:32;;;;;;;3.23;1.53;;;;;;;27.06;34.31;94593.84;5037635;28;20207;-69
2022/09/16 06:19:00;;;;;;;0.37;0.37;;;;;;;27.92;33.22;94589.75;5036938;28;20200;-68
2022/09/16 06:21:28;;;;;;;0.30;0.30;;;;;;;27.83;33.04;94586.59;5030987;28;20220;-68
2022/09/16 06:23:56;;;;;;;0.50;0.50;;;;;;;27.90;32.34;94576.66;5042734;28;20205;-67
2022/09/16 06:26:25;;;;;;;0.93;0.57;;;;;;;28.13;31.79;94565.72;5050620;28;20648;-67
2022/09/16 06:28:52;;;;;;;1.00;1.00;;;;;;;28.55;32.55;94568.75;5050391;28;20258;-67
2022/09/16 06:31:22;;;;;;;0.30;0.30;;;;;;;28.63;32.40;94575.69;5047123;28;20296;-68
2022/09/16 06:33:50;;;;;;;0.37;0.37;;;;;;;28.69;32.01;94574.19;5040024;28;20655;-71
2022/09/16 06:36:20;;;;;;;0.83;0.80;;;;;;;28.91;31.94;94573.16;5036052;28;20204;-69
2022/09/16 06:38:48;;;;;;;2.90;1.33;;;;;;;28.67;32.32;94571.09;5042051;28;20193;-67
2022/09/16 06:41:17;;;;;;;1.27;0.90;;;;;;;28.16;33.62;94573.06;5055495;28;20197;-69
2022/09/16 06:43:45;;;;;;;0.63;0.63;;;;;;;29.05;32.32;94579.78;5051520;28;20607;-71
2022/09/16 06:46:18;;;;;;;3.23;1.53;;;;;;;29.17;31.40;94577.53;5039407;28;20707;-69
2022/09/16 06:48:49;;;;;;;2.97;1.10;;;;;;;29.38;32.85;94576.84;5036964;28;20203;-67
2022/09/16 06:51:25;;;;;;;0.67;0.30;;;;;;;29.23;30.95;94589.50;5036835;28;20228;-69
2022/09/16 06:53:53;;;;;;;0.30;0.30;;;;;;;29.11;30.75;94575.53;5036828;28;20643;-69
2022/09/16 06:56:21;;;;;;;0.17;0.17;;;;;;;29.69;30.34;94578.81;5040618;28;20185;-68
2022/09/16 06:58:54;;;;;;;0.20;0.20;;;;;;;28.98;30.46;94579.75;5043634;28;20224;-71
2022/09/16 07:01:27;;;;;;;0.63;0.60;;;;;;;28.83;32.01;94576.22;5038841;28;20193;-67
2022/09/16 07:03:56;;;;;;;0.53;0.53;;;;;;;29.03;31.04;94584.75;5034559;28;20228;-69
2022/09/16 07:06:26;;;;;;;0.30;0.30;;;;;;;29.35;30.09;94593.78;5037953;28;20196;-69
2022/09/16 07:09:13;;;;;;;8.47;2.77;;;;;;;29.31;31.08;94591.06;5046260;28;20593;-70
2022/09/16 07:11:40;;;;;;;0.30;0.30;;;;;;;29.23;31.28;94596.81;5029729;28;20651;-70
2022/09/16 07:14:08;;;;;;;0.97;0.93;;;;;;;29.10;30.27;94582.09;5043925;28;20193;-72
2022/09/16 07:16:35;;;;;;;0.20;0.20;;;;;;;29.55;29.95;94586.88;5029608;28;20649;-68
2022/09/16 07:19:03;;;;;;;0.30;0.30;;;;;;;29.60;29.87;94595.38;5043435;28;20200;-70
2022/09/16 07:21:30;;;;;;;0.60;0.60;;;;;;;28.74;30.75;94592.72;5030039;28;20189;-69
2022/09/16 07:23:59;;;;;;;0.73;0.73;;;;;;;29.76;29.97;94576.91;5042116;28;20223;-68
2022/09/16 07:26:28;;;;;;;0.77;0.40;;;;;;;29.63;29.81;94583.06;5035519;28;20292;-70
2022/09/16 07:28:59;;;;;;;0.37;0.37;;;;;;;28.99;30.87;94582.81;5049153;28;20191;-70
2022/09/16 07:31:28;;;;;;;0.30;0.30;;;;;;;29.57;30.24;94579.19;5049415;28;20242;-68
2022/09/16 07:33:56;;;;;;;29.07;1.87;;;;;;;29.20;32.16;94575.97;5049450;28;20231;-69
2022/09/16 07:36:44;;;;;;;0.20;0.20;;;;;;;29.73;31.51;94583.09;5035568;28;20298;-68
2022/09/16 07:39:12;;;;;;;0.93;0.70;;;;;;;29.98;32.12;94588.53;5037981;28;20201;-69
2022/09/16 07:41:41;;;;;;;0.40;0.40;;;;;;;29.99;30.78;94575.78;5048251;28;20564;-68
2022/09/16 07:44:11;;;;;;;5.87;1.20;;;;;;;29.63;31.53;94556.06;5050533;28;20224;-67
2022/09/16 07:46:39;;;;;;;0.80;0.80;;;;;;;30.03;30.78;94544.13;5058966;28;20702;-67
2022/09/16 07:49:08;;;;;;;2.10;1.07;;;;;;;30.71;29.36;94535.56;5055946;28;20232;-68
2022/09/16 07:51:35;;;;;;;1.80;0.87;;;;;;;30.94;29.14;94541.28;5035749;28;20309;-72
2022/09/16 07:54:05;;;;;;;0.20;0.20;;;;;;;30.82;29.79;94545.19;5049732;28;20208;-67
2022/09/16 07:56:35;;;;;;;0.10;0.10;;;;;;;30.73;29.41;94541.31;5034934;28;20276;-71
2022/09/16 07:59:04;;;;;;;0.23;0.23;;;;;;;31.32;28.50;94545.75;5046594;28;20196;-70
2022/09/16 08:01:31;;;;;;;0.40;0.40;;;;;;;30.05;31.27;94545.28;5039897;28;20189;-69
2022/09/16 08:03:59;;;;;;;0.40;0.40;;;;;;;31.18;29.55;94540.41;5046644;28;20195;-68
2022/09/16 08:06:28;;;;;;;2.40;1.37;;;;;;;31.36;28.47;94532.22;5044947;28;20197;-67
2022/09/16 08:08:58;;;;;;;0.57;0.53;;;;;;;31.32;29.23;94534.91;5046929;28;20197;-71
2022/09/16 08:11:40;;;;;;;0.50;0.50;;;;;;;31.32;29.24;94526.78;5042787;28;20265;-70
2022/09/16 08:14:07;;;;;;;14.63;0.60;;;;;;;31.56;28.94;94528.63;5053248;28;20196;-68
2022/09/16 08:16:34;;;;;;;0.50;0.50;;;;;;;30.98;29.45;94530.44;5053022;28;20188;-69
2022/09/16 08:19:01;;;;;;;1.13;0.93;;;;;;;31.29;29.54;94519.47;5039352;28;20201;-69
2022/09/16 08:21:28;;;;;;;1.60;1.13;;;;;;;32.10;28.20;94524.34;5032986;28;20295;-70
2022/09/16 08:23:55;;;;;;;0.43;0.40;;;;;;;32.01;28.94;94515.16;5045510;28;20311;-71
2022/09/16 08:26:23;;;;;;;0.53;0.53;;;;;;;32.46;28.88;94512.00;5034367;28;20258;-69
2022/09/16 08:28:51;;;;;;;0.30;0.30;;;;;;;32.26;29.03;94513.72;5043504;28;20291;-70
2022/09/16 08:31:37;;;;;;;0.30;0.30;;;;;;;32.48;28.25;94517.06;5052331;28;20663;-70
2022/09/16 08:34:04;;;;;;;0.67;0.30;;;;;;;32.28;26.88;94514.09;5051251;28;20208;-71
2022/09/16 08:36:34;;;;;;;0.53;0.53;;;;;;;31.96;26.88;94508.22;5038590;28;20204;-70
2022/09/16 08:39:01;;;;;;;0.43;0.43;;;;;;;32.25;27.64;94509.50;5041908;28;20651;-70
2022/09/16 08:41:54;;;;;;;0.20;0.20;;;;;;;32.66;26.63;94501.34;5046366;28;20710;-70
2022/09/16 08:44:41;;;;;;;0.53;0.50;;;;;;;32.71;26.81;94504.41;5031938;28;20232;-69
2022/09/16 08:47:30;;;;;;;0.43;0.43;;;;;;;32.60;26.30;94494.81;5039346;28;20184;-70
2022/09/16 08:50:00;;;;;;;0.83;0.83;;;;;;;32.15;27.87;94494.13;5049504;28;20196;-69
2022/09/16 08:52:46;;;;;;;1.10;1.00;;;;;;;32.73;26.87;94496.63;5032712;28;20217;-72
2022/09/16 08:55:20;;;;;;;0.43;0.40;;;;;;;32.74;27.06;94487.28;5046112;28;20200;-70
2022/09/16 08:58:37;;;;;;;0.30;0.30;;;;;;;32.64;27.40;94488.19;5033297;28;20208;-69
2022/09/16 09:01:23;;;;;;;0.20;0.20;;;;;;;32.69;27.06;94495.88;5051041;28;20232;-69
2022/09/16 09:03:51;;;;;;;0.27;0.27;;;;;;;32.41;27.06;94488.03;5052140;28;20249;-68
2022/09/16 09:06:32;;;;;;;0.60;0.60;;;;;;;32.32;27.52;94493.16;5052265;28;20220;-70
2022/09/16 09:09:36;;;;;;;2.70;1.23;;;;;;;32.06;27.40;94480.25;5050497;28;20197;-70
2022/09/16 09:12:17;;;;;;;2.07;1.00;;;;;;;32.07;27.41;94498.06;5032514;28;20228;-69
2022/09/16 09:14:55;;;;;;;0.53;0.53;;;;;;;32.24;27.69;94490.91;5038454;28;20200;-68
2022/09/16 09:17:31;;;;;;;1.00;0.90;;;;;;;32.21;27.16;94497.16;5051703;28;20204;-68
2022/09/16 09:20:20;;;;;;;0.60;0.60;;;;;;;32.37;27.31;94500.84;5051976;28;20212;-69
2022/09/16 09:23:22;;;;;;;0.73;0.73;;;;;;;32.42;26.94;94503.16;5048797;28;20192;-71
2022/09/16 09:26:30;;;;;;;3.63;1.63;;;;;;;32.22;28.35;94504.88;5054181;28;20216;-71
2022/09/16 09:29:24;;;;;;;0.30;0.30;;;;;;;32.63;27.89;94499.44;5020091;28;20208;-70
2022/09/16 09:32:23;;;;;;;1.37;1.27;;;;;;;32.54;28.56;94494.50;5044366;28;20228;-70
2022/09/16 09:35:16;;;;;;;0.40;0.40;;;;;;;32.53;27.38;94492.97;5045417;28;20252;-71
2022/09/16 09:38:00;;;;;;;0.60;0.60;;;;;;;32.52;27.00;94488.69;5031751;28;20216;-69
2022/09/16 09:40:33;;;;;;;1.37;1.17;;;;;;;32.62;27.07;94495.97;5040080;28;20197;-70
2022/09/16 09:43:22;;;;;;;0.50;0.50;;;;;;;32.89;27.62;94489.81;5036909;28;20319;-69
2022/09/16 09:45:58;;;;;;;0.47;0.47;;;;;;;33.00;27.37;94490.50;5051031;28;20247;-67
2022/09/16 09:48:37;;;;;;;0.77;0.77;;;;;;;32.97;27.17;94494.81;5050986;28;20231;-67
2022/09/16 09:51:14;;;;;;;0.87;0.70;;;;;;;32.66;27.26;94502.09;5040038;28;20668;-68
2022/09/16 09:53:52;;;;;;;3.10;0.80;;;;;;;32.42;28.14;94497.75;5044769;28;20213;-69
2022/09/16 09:56:22;;;;;;;0.40;0.40;;;;;;;32.73;28.07;94506.69;5030781;28;20200;-67
2022/09/16 09:59:05;;;;;;;0.30;0.30;;;;;;;32.75;27.57;94505.13;5044860;28;20226;-70
2022/09/16 10:01:32;;;;;;;0.40;0.40;;;;;;;32.52;27.69;94507.69;5041307;28;20192;-68
2022/09/16 10:04:00;;;;;;;0.73;0.73;;;;;;;32.12;27.54;94516.59;5048683;28;20192;-69
2022/09/16 10:06:34;;;;;;;1.83;0.73;;;;;;;32.17;27.88;94527.00;5039474;28;20193;-71
2022/09/16 10:09:02;;;;;;;1.00;0.37;;;;;;;32.08;29.07;94537.53;5036809;28;20287;-70
2022/09/16 10:11:30;;;;;;;0.63;0.63;;;;;;;32.39;28.16;94552.75;5051057;28;20280;-70
2022/09/16 10:14:00;;;;;;;2.53;1.57;;;;;;;32.12;29.89;94562.66;5050663;28;20235;-71
2022/09/16 10:16:37;;;;;;;0.50;0.50;;;;;;;31.61;29.74;94568.03;5038236;28;20199;-67
2022/09/16 10:19:17;;;;;;;0.63;0.60;;;;;;;31.39;30.03;94577.44;5050313;28;20192;-67
2022/09/16 10:21:46;;;;;;;0.60;0.60;;;;;;;31.58;29.86;94598.63;5030957;28;20189;-69
2022/09/16 10:24:21;;;;;;;3.10;1.90;;;;;;;31.28;30.76;94630.84;5031178;28;20296;-69
2022/09/16 10:26:48;;;;;;;3.23;1.43;;;;;;;30.62;31.59;94660.34;5050047;28;20204;-71
2022/09/16 10:29:18;;;;;;;1.40;1.20;;;;;;;30.16;33.45;94673.09;5036538;28;20196;-69
2022/09/16 10:31:46;;;;;;;0.40;0.40;;;;;;;29.65;36.97;94713.06;5037811;28;20589;-73
2022/09/16 10:34:28;;;;;;;0.40;0.40;;;;;;;28.86;38.29;94762.31;5037988;28;20279;-70
2022/09/16 10:37:16;;;;;;;0.10;0.10;;;;;;;28.03;40.33;94779.22;5038064;28;20223;-70
2022/09/16 10:39:50;;;;;;;0.50;0.50;;;;;;;27.65;40.84;94774.09;5050493;28;20208;-67
2022/09/16 10:42:23;;;;;;;0.50;0.50;;;;;;;27.82;41.43;94773.56;5040636;28;20197;-71
2022/09/16 10:44:53;;;;;;;2.63;1.90;;;;;;;26.88;43.44;94785.31;5032500;28;20204;-69
2022/09/16 10:47:27;;;;;;;0.20;0.20;;;;;;;27.07;43.69;94775.59;5050494;28;20643;-66
2022/09/16 10:50:00;;;;;;;0.10;0.10;;;;;;;26.49;44.20;94770.44;5054139;28;20204;-68
2022/09/16 10:52:31;;;;;;;0.30;0.30;;;;;;;26.41;44.87;94771.44;5051707;28;20193;-66
2022/09/16 10:55:19;;;;;;;2.23;1.27;;;;;;;26.69;45.10;94755.81;5036096;28;20241;-71
2022/09/16 10:57:46;;;;;;;1.80;0.93;;;;;;;26.28;45.32;94751.25;5036782;28;20661;-70
2022/09/16 11:00:13;;;;;;;0.30;0.30;;;;;;;26.36;44.37;94742.19;5050369;28;20196;-69
2022/09/16 11:02:51;;;;;;;0.20;0.20;;;;;;;26.47;45.31;94705.53;5036108;28;20207;-68
2022/09/16 11:05:59;;;;;;;2.13;1.33;;;;;;;25.92;46.39;94700.69;5049874;28;20554;-71
2022/09/16 11:08:44;;;;;;;0.20;0.20;;;;;;;26.32;45.56;94687.63;5039437;28;20335;-68
2022/09/16 11:11:14;;;;;;;0.13;0.13;;;;;;;26.03;46.05;94680.97;5049253;28;20199;-70
2022/09/16 11:13:50;;;;;;;0.23;0.23;;;;;;;26.19;45.47;94661.28;5050520;28;20208;-70
2022/09/16 11:16:23;;;;;;;16.90;1.17;;;;;;;26.53;44.26;94636.88;5056989;28;20204;-68
2022/09/16 11:19:17;;;;;;;0.10;0.10;;;;;;;26.38;43.55;94626.28;5049705;28;20220;-68
2022/09/16 11:22:19;;;;;;;0.60;0.60;;;;;;;26.63;43.61;94616.69;5041640;28;20232;-71
2022/09/16 11:25:17;;;;;;;0.20;0.20;;;;;;;26.71;43.04;94602.25;5034532;28;20200;-69
2022/09/16 11:27:57;;;;;;;2.33;1.20;;;;;;;26.98;41.83;94596.47;5047723;28;20205;-72
2022/09/16 11:30:24;;;;;;;0.10;0.10;;;;;;;27.12;40.76;94568.16;5039135;28;20195;-69
2022/09/16 11:33:03;;;;;;;0.30;0.30;;;;;;;27.08;40.74;94572.75;5047949;28;20307;-70
2022/09/16 11:35:54;;;;;;;0.20;0.20;;;;;;;28.03;39.06;94557.56;5029769;28;20197;-71
2022/09/16 11:38:37;;;;;;;0.57;0.57;;;;;;;27.53;38.47;94551.72;5029625;28;20319;-67
2022/09/16 11:41:17;;;;;;;0.30;0.30;;;;;;;28.51;36.77;94546.34;5033524;28;20236;-70
2022/09/16 11:43:44;;;;;;;0.50;0.50;;;;;;;28.98;37.42;94559.69;5053183;28;20224;-70
2022/09/16 11:46:26;;;;;;;0.10;0.10;;;;;;;28.73;40.39;94561.50;5040038;28;20235;-68
2022/09/16 11:49:06;;;;;;;0.63;0.53;;;;;;;28.03;43.46;94547.56;5041599;28;20254;-71
2022/09/16 11:51:54;;;;;;;0.93;0.77;;;;;;;28.95;41.31;94549.66;5038723;28;20592;-70
2022/09/16 11:54:44;;;;;;;0.20;0.20;;;;;;;27.98;42.57;94551.38;5043181;28;20689;-67
2022/09/16 11:57:23;;;;;;;1.10;1.00;;;;;;;28.53;41.56;94543.28;5036883;28;20203;-67
2022/09/16 12:00:18;;;;;;;0.50;0.50;;;;;;;28.93;40.25;94543.88;5043225;28;20293;-70
2022/09/16 12:03:03;;;;;;;0.70;0.70;;;;;;;29.44;38.93;94518.59;5052782;28;20290;-67
2022/09/16 12:05:34;;;;;;;4.83;1.47;;;;;;;29.95;38.69;94510.94;5052905;28;20620;-69
2022/09/16 12:08:21;;;;;;;0.30;0.30;;;;;;;30.17;37.37;94508.97;5053152;28;20204;-70
2022/09/16 12:10:51;;;;;;;0.50;0.50;;;;;;;29.49;40.42;94518.25;5053064;28;20204;-70